sensor_id;sensor_type;location;lat;lon;timestamp;temperature;humidity
292;DHT22;23311;48.776;9.162;2022-09-09T00:01:49;15.90;94.20
292;DHT22;23311;48.776;9.162;2022-09-09T00:04:26;15.90;94.10
292;DHT22;23311;48.776;9.162;2022-09-09T00:07:05;15.80;94.40
292;DHT22;23311;48.776;9.162;2022-09-09T00:09:40;15.80;94.20
292;DHT22;23311;48.776;9.162;2022-09-09T00:12:14;15.70;94.30
292;DHT22;23311;48.776;9.162;2022-09-09T00:14:48;15.70;94.40
292;DHT22;23311;48.776;9.162;2022-09-09T00:17:26;15.70;94.50
292;DHT22;23311;48.776;9.162;2022-09-09T00:20:02;15.70;94.30
292;DHT22;23311;48.776;9.162;2022-09-09T00:22:32;15.70;94.40
292;DHT22;23311;48.776;9.162;2022-09-09T00:25:09;15.70;94.20
292;DHT22;23311;48.776;9.162;2022-09-09T00:27:44;15.80;94.00
292;DHT22;23311;48.776;9.162;2022-09-09T00:30:15;15.80;93.70
292;DHT22;23311;48.776;9.162;2022-09-09T00:32:46;15.90;93.60
292;DHT22;23311;48.776;9.162;2022-09-09T00:35:18;16.00;93.20
292;DHT22;23311;48.776;9.162;2022-09-09T00:37:52;16.00;93.10
292;DHT22;23311;48.776;9.162;2022-09-09T00:40:28;16.20;92.60
292;DHT22;23311;48.776;9.162;2022-09-09T00:43:16;16.20;92.40
292;DHT22;23311;48.776;9.162;2022-09-09T00:49:00;16.40;91.50
292;DHT22;23311;48.776;9.162;2022-09-09T00:51:43;16.60;91.00
292;DHT22;23311;48.776;9.162;2022-09-09T00:54:24;16.60;90.90
292;DHT22;23311;48.776;9.162;2022-09-09T00:57:03;16.70;90.70
292;DHT22;23311;48.776;9.162;2022-09-09T00:59:41;16.70;90.70
292;DHT22;23311;48.776;9.162;2022-09-09T01:02:19;16.70;90.70
292;DHT22;23311;48.776;9.162;2022-09-09T01:04:50;16.70;90.60
292;DHT22;23311;48.776;9.162;2022-09-09T01:07:18;16.70;90.50
292;DHT22;23311;48.776;9.162;2022-09-09T01:09:55;16.70;90.40
292;DHT22;23311;48.776;9.162;2022-09-09T01:12:26;16.70;90.60
292;DHT22;23311;48.776;9.162;2022-09-09T01:15:03;16.60;90.80
292;DHT22;23311;48.776;9.162;2022-09-09T01:17:42;16.60;90.80
292;DHT22;23311;48.776;9.162;2022-09-09T01:20:13;16.60;90.80
292;DHT22;23311;48.776;9.162;2022-09-09T01:22:55;16.50;91.10
292;DHT22;23311;48.776;9.162;2022-09-09T01:28:33;16.70;90.50
292;DHT22;23311;48.776;9.162;2022-09-09T01:31:04;16.80;90.20
292;DHT22;23311;48.776;9.162;2022-09-09T01:33:34;16.80;90.10
292;DHT22;23311;48.776;9.162;2022-09-09T01:36:05;16.80;90.10
292;DHT22;23311;48.776;9.162;2022-09-09T01:38:36;16.80;90.10
292;DHT22;23311;48.776;9.162;2022-09-09T01:41:04;16.80;90.10
292;DHT22;23311;48.776;9.162;2022-09-09T01:43:34;16.70;90.20
292;DHT22;23311;48.776;9.162;2022-09-09T01:46:02;16.70;90.50
292;DHT22;23311;48.776;9.162;2022-09-09T01:48:30;16.70;90.70
292;DHT22;23311;48.776;9.162;2022-09-09T01:50:59;16.60;90.90
292;DHT22;23311;48.776;9.162;2022-09-09T01:53:27;16.60;90.90
292;DHT22;23311;48.776;9.162;2022-09-09T01:56:05;16.60;91.00
292;DHT22;23311;48.776;9.162;2022-09-09T01:58:45;16.60;90.90
292;DHT22;23311;48.776;9.162;2022-09-09T02:01:21;16.60;91.10
292;DHT22;23311;48.776;9.162;2022-09-09T02:03:54;16.60;91.20
292;DHT22;23311;48.776;9.162;2022-09-09T02:06:27;16.40;91.40
292;DHT22;23311;48.776;9.162;2022-09-09T02:08:57;16.20;92.10
292;DHT22;23311;48.776;9.162;2022-09-09T02:11:28;16.00;92.70
292;DHT22;23311;48.776;9.162;2022-09-09T02:14:00;16.00;93.10
292;DHT22;23311;48.776;9.162;2022-09-09T02:16:34;16.10;92.90
292;DHT22;23311;48.776;9.162;2022-09-09T02:19:09;16.10;92.90
292;DHT22;23311;48.776;9.162;2022-09-09T02:21:42;16.00;93.30
292;DHT22;23311;48.776;9.162;2022-09-09T02:24:14;16.20;92.90
292;DHT22;23311;48.776;9.162;2022-09-09T02:26:45;16.10;93.10
292;DHT22;23311;48.776;9.162;2022-09-09T02:29:20;16.00;93.20
292;DHT22;23311;48.776;9.162;2022-09-09T02:31:49;15.90;93.60
292;DHT22;23311;48.776;9.162;2022-09-09T02:34:20;15.70;94.20
292;DHT22;23311;48.776;9.162;2022-09-09T02:36:51;15.60;94.50
292;DHT22;23311;48.776;9.162;2022-09-09T02:39:21;15.60;94.80
292;DHT22;23311;48.776;9.162;2022-09-09T02:41:49;15.70;94.70
292;DHT22;23311;48.776;9.162;2022-09-09T02:44:19;15.50;95.30
292;DHT22;23311;48.776;9.162;2022-09-09T02:47:05;15.30;95.50
292;DHT22;23311;48.776;9.162;2022-09-09T02:49:43;15.10;95.50
292;DHT22;23311;48.776;9.162;2022-09-09T02:52:14;15.30;95.50
292;DHT22;23311;48.776;9.162;2022-09-09T02:54:43;15.50;95.50
292;DHT22;23311;48.776;9.162;2022-09-09T02:57:13;15.40;95.50
292;DHT22;23311;48.776;9.162;2022-09-09T02:59:46;15.30;95.50
292;DHT22;23311;48.776;9.162;2022-09-09T03:02:14;15.30;95.50
292;DHT22;23311;48.776;9.162;2022-09-09T03:04:42;15.30;95.50
292;DHT22;23311;48.776;9.162;2022-09-09T03:07:11;15.10;95.50
292;DHT22;23311;48.776;9.162;2022-09-09T03:09:39;15.00;95.50
292;DHT22;23311;48.776;9.162;2022-09-09T03:12:08;14.90;95.50
292;DHT22;23311;48.776;9.162;2022-09-09T03:14:38;14.90;95.50
292;DHT22;23311;48.776;9.162;2022-09-09T03:17:08;14.90;95.50
292;DHT22;23311;48.776;9.162;2022-09-09T03:19:36;14.90;95.50
292;DHT22;23311;48.776;9.162;2022-09-09T03:22:04;15.10;95.50
292;DHT22;23311;48.776;9.162;2022-09-09T03:24:32;15.20;95.50
292;DHT22;23311;48.776;9.162;2022-09-09T03:27:00;15.40;95.50
292;DHT22;23311;48.776;9.162;2022-09-09T03:29:28;15.40;95.50
292;DHT22;23311;48.776;9.162;2022-09-09T03:31:56;15.30;95.50
292;DHT22;23311;48.776;9.162;2022-09-09T03:34:25;15.40;95.50
292;DHT22;23311;48.776;9.162;2022-09-09T03:36:53;15.40;95.50
292;DHT22;23311;48.776;9.162;2022-09-09T03:39:22;15.40;95.50
292;DHT22;23311;48.776;9.162;2022-09-09T03:41:50;15.40;95.50
292;DHT22;23311;48.776;9.162;2022-09-09T03:44:18;15.50;95.50
292;DHT22;23311;48.776;9.162;2022-09-09T03:46:46;15.70;95.50
292;DHT22;23311;48.776;9.162;2022-09-09T03:49:14;15.80;95.30
292;DHT22;23311;48.776;9.162;2022-09-09T03:51:44;15.90;94.90
292;DHT22;23311;48.776;9.162;2022-09-09T03:54:12;15.70;95.30
292;DHT22;23311;48.776;9.162;2022-09-09T03:56:40;15.70;95.40
292;DHT22;23311;48.776;9.162;2022-09-09T03:59:08;15.60;95.50
292;DHT22;23311;48.776;9.162;2022-09-09T04:01:36;15.60;95.50
292;DHT22;23311;48.776;9.162;2022-09-09T04:04:04;15.70;95.50
292;DHT22;23311;48.776;9.162;2022-09-09T04:06:32;15.60;95.50
292;DHT22;23311;48.776;9.162;2022-09-09T04:09:02;15.60;95.50
292;DHT22;23311;48.776;9.162;2022-09-09T04:11:30;15.60;95.50
292;DHT22;23311;48.776;9.162;2022-09-09T04:13:58;15.70;95.50
292;DHT22;23311;48.776;9.162;2022-09-09T04:16:26;15.80;95.40
292;DHT22;23311;48.776;9.162;2022-09-09T04:18:54;15.70;95.40
292;DHT22;23311;48.776;9.162;2022-09-09T04:21:22;15.70;95.50
292;DHT22;23311;48.776;9.162;2022-09-09T04:23:50;15.70;95.50
292;DHT22;23311;48.776;9.162;2022-09-09T04:26:20;15.80;95.20
292;DHT22;23311;48.776;9.162;2022-09-09T04:28:48;15.80;95.10
292;DHT22;23311;48.776;9.162;2022-09-09T04:31:18;15.90;94.90
292;DHT22;23311;48.776;9.162;2022-09-09T04:33:47;15.90;94.90
292;DHT22;23311;48.776;9.162;2022-09-09T04:36:15;16.00;94.70
292;DHT22;23311;48.776;9.162;2022-09-09T04:38:43;16.00;94.80
292;DHT22;23311;48.776;9.162;2022-09-09T04:41:12;16.00;94.80
292;DHT22;23311;48.776;9.162;2022-09-09T04:43:41;15.90;94.90
292;DHT22;23311;48.776;9.162;2022-09-09T04:46:09;15.80;95.20
292;DHT22;23311;48.776;9.162;2022-09-09T04:48:37;15.70;95.50
292;DHT22;23311;48.776;9.162;2022-09-09T04:51:08;15.70;95.50
292;DHT22;23311;48.776;9.162;2022-09-09T04:53:36;15.60;95.50
292;DHT22;23311;48.776;9.162;2022-09-09T04:56:06;15.50;95.50
292;DHT22;23311;48.776;9.162;2022-09-09T04:58:35;15.40;95.50
292;DHT22;23311;48.776;9.162;2022-09-09T05:01:06;15.30;95.50
292;DHT22;23311;48.776;9.162;2022-09-09T05:03:35;15.30;95.50
292;DHT22;23311;48.776;9.162;2022-09-09T05:06:09;15.30;95.50
292;DHT22;23311;48.776;9.162;2022-09-09T05:08:38;15.20;95.50
292;DHT22;23311;48.776;9.162;2022-09-09T05:11:13;15.20;95.50
292;DHT22;23311;48.776;9.162;2022-09-09T05:13:42;15.20;95.50
292;DHT22;23311;48.776;9.162;2022-09-09T05:16:12;15.30;95.50
292;DHT22;23311;48.776;9.162;2022-09-09T05:18:41;15.40;95.50
292;DHT22;23311;48.776;9.162;2022-09-09T05:21:10;15.60;95.50
292;DHT22;23311;48.776;9.162;2022-09-09T05:23:38;15.80;95.50
292;DHT22;23311;48.776;9.162;2022-09-09T05:26:07;15.80;95.50
292;DHT22;23311;48.776;9.162;2022-09-09T05:28:43;15.90;95.50
292;DHT22;23311;48.776;9.162;2022-09-09T05:31:13;15.90;95.50
292;DHT22;23311;48.776;9.162;2022-09-09T05:33:44;16.00;95.50
292;DHT22;23311;48.776;9.162;2022-09-09T05:36:14;16.00;95.50
292;DHT22;23311;48.776;9.162;2022-09-09T05:38:44;16.20;95.30
292;DHT22;23311;48.776;9.162;2022-09-09T05:41:12;16.30;94.90
292;DHT22;23311;48.776;9.162;2022-09-09T05:43:42;16.40;94.60
292;DHT22;23311;48.776;9.162;2022-09-09T05:46:15;16.50;94.20
292;DHT22;23311;48.776;9.162;2022-09-09T05:48:44;16.60;94.00
292;DHT22;23311;48.776;9.162;2022-09-09T05:51:15;16.70;93.70
292;DHT22;23311;48.776;9.162;2022-09-09T05:53:44;16.70;93.50
292;DHT22;23311;48.776;9.162;2022-09-09T05:56:14;16.70;93.60
292;DHT22;23311;48.776;9.162;2022-09-09T05:58:42;16.80;93.60
292;DHT22;23311;48.776;9.162;2022-09-09T06:01:14;16.90;93.40
292;DHT22;23311;48.776;9.162;2022-09-09T06:03:44;17.10;92.80
292;DHT22;23311;48.776;9.162;2022-09-09T06:06:14;17.10;92.70
292;DHT22;23311;48.776;9.162;2022-09-09T06:08:44;17.10;92.60
292;DHT22;23311;48.776;9.162;2022-09-09T06:11:14;17.10;92.60
292;DHT22;23311;48.776;9.162;2022-09-09T06:13:43;17.10;92.60
292;DHT22;23311;48.776;9.162;2022-09-09T06:16:15;17.10;92.50
292;DHT22;23311;48.776;9.162;2022-09-09T06:18:44;17.20;92.50
292;DHT22;23311;48.776;9.162;2022-09-09T06:21:17;17.30;92.10
292;DHT22;23311;48.776;9.162;2022-09-09T06:23:46;17.40;91.90
292;DHT22;23311;48.776;9.162;2022-09-09T06:26:16;17.40;91.90
292;DHT22;23311;48.776;9.162;2022-09-09T06:28:45;17.50;91.80
292;DHT22;23311;48.776;9.162;2022-09-09T06:31:17;17.50;91.70
292;DHT22;23311;48.776;9.162;2022-09-09T06:33:53;17.50;91.70
292;DHT22;23311;48.776;9.162;2022-09-09T06:36:23;17.60;91.70
292;DHT22;23311;48.776;9.162;2022-09-09T06:38:51;17.70;91.40
292;DHT22;23311;48.776;9.162;2022-09-09T06:41:21;17.80;91.20
292;DHT22;23311;48.776;9.162;2022-09-09T06:43:49;18.00;91.00
292;DHT22;23311;48.776;9.162;2022-09-09T06:46:20;18.20;90.40
292;DHT22;23311;48.776;9.162;2022-09-09T06:48:49;18.30;90.00
292;DHT22;23311;48.776;9.162;2022-09-09T06:51:18;18.40;90.00
292;DHT22;23311;48.776;9.162;2022-09-09T06:53:50;18.20;90.30
292;DHT22;23311;48.776;9.162;2022-09-09T06:56:21;18.30;90.30
292;DHT22;23311;48.776;9.162;2022-09-09T06:58:51;18.30;90.20
292;DHT22;23311;48.776;9.162;2022-09-09T07:01:22;18.50;90.10
292;DHT22;23311;48.776;9.162;2022-09-09T07:03:53;18.70;89.60
292;DHT22;23311;48.776;9.162;2022-09-09T07:06:22;18.90;89.20
292;DHT22;23311;48.776;9.162;2022-09-09T07:08:52;19.00;88.80
292;DHT22;23311;48.776;9.162;2022-09-09T07:11:24;19.10;88.40
292;DHT22;23311;48.776;9.162;2022-09-09T07:13:54;19.30;88.10
292;DHT22;23311;48.776;9.162;2022-09-09T07:16:24;19.40;87.70
292;DHT22;23311;48.776;9.162;2022-09-09T07:18:52;19.40;87.60
292;DHT22;23311;48.776;9.162;2022-09-09T07:21:25;19.40;87.20
292;DHT22;23311;48.776;9.162;2022-09-09T07:23:54;19.60;86.90
292;DHT22;23311;48.776;9.162;2022-09-09T07:26:24;19.70;86.40
292;DHT22;23311;48.776;9.162;2022-09-09T07:28:52;19.80;86.40
292;DHT22;23311;48.776;9.162;2022-09-09T07:31:25;20.10;85.70
292;DHT22;23311;48.776;9.162;2022-09-09T07:33:53;20.60;84.60
292;DHT22;23311;48.776;9.162;2022-09-09T07:36:23;22.10;81.40
292;DHT22;23311;48.776;9.162;2022-09-09T07:38:57;22.80;79.20
292;DHT22;23311;48.776;9.162;2022-09-09T07:41:27;22.80;78.00
292;DHT22;23311;48.776;9.162;2022-09-09T07:43:55;23.60;77.90
292;DHT22;23311;48.776;9.162;2022-09-09T07:46:26;23.80;76.30
292;DHT22;23311;48.776;9.162;2022-09-09T07:48:56;25.00;74.00
292;DHT22;23311;48.776;9.162;2022-09-09T07:51:26;25.20;72.30
292;DHT22;23311;48.776;9.162;2022-09-09T07:53:56;21.60;79.30
292;DHT22;23311;48.776;9.162;2022-09-09T07:56:25;20.50;83.80
292;DHT22;23311;48.776;9.162;2022-09-09T07:58:55;20.80;84.00
292;DHT22;23311;48.776;9.162;2022-09-09T08:01:27;22.50;80.50
292;DHT22;23311;48.776;9.162;2022-09-09T08:03:58;24.80;75.10
292;DHT22;23311;48.776;9.162;2022-09-09T08:06:28;26.00;71.80
292;DHT22;23311;48.776;9.162;2022-09-09T08:08:56;27.60;68.30
292;DHT22;23311;48.776;9.162;2022-09-09T08:11:26;26.30;69.80
292;DHT22;23311;48.776;9.162;2022-09-09T08:13:55;26.00;70.80
292;DHT22;23311;48.776;9.162;2022-09-09T08:16:31;27.80;68.00
292;DHT22;23311;48.776;9.162;2022-09-09T08:18:59;28.10;65.90
292;DHT22;23311;48.776;9.162;2022-09-09T08:21:29;25.20;70.40
292;DHT22;23311;48.776;9.162;2022-09-09T08:24:00;23.80;74.70
292;DHT22;23311;48.776;9.162;2022-09-09T08:26:30;25.10;72.00
292;DHT22;23311;48.776;9.162;2022-09-09T08:28:59;26.90;68.90
292;DHT22;23311;48.776;9.162;2022-09-09T08:31:30;27.90;66.50
292;DHT22;23311;48.776;9.162;2022-09-09T08:33:59;27.30;67.00
292;DHT22;23311;48.776;9.162;2022-09-09T08:36:29;27.80;66.60
292;DHT22;23311;48.776;9.162;2022-09-09T08:39:00;27.80;66.40
292;DHT22;23311;48.776;9.162;2022-09-09T08:41:39;27.90;65.80
292;DHT22;23311;48.776;9.162;2022-09-09T08:44:12;26.70;68.00
292;DHT22;23311;48.776;9.162;2022-09-09T08:46:48;27.30;67.60
292;DHT22;23311;48.776;9.162;2022-09-09T08:49:31;27.90;66.20
292;DHT22;23311;48.776;9.162;2022-09-09T08:52:11;28.30;65.80
292;DHT22;23311;48.776;9.162;2022-09-09T08:54:42;28.10;65.70
292;DHT22;23311;48.776;9.162;2022-09-09T08:57:21;26.90;67.20
292;DHT22;23311;48.776;9.162;2022-09-09T08:59:52;25.10;70.40
292;DHT22;23311;48.776;9.162;2022-09-09T09:02:26;26.40;68.10
292;DHT22;23311;48.776;9.162;2022-09-09T09:05:14;25.60;68.60
292;DHT22;23311;48.776;9.162;2022-09-09T09:07:55;24.80;69.70
292;DHT22;23311;48.776;9.162;2022-09-09T09:10:39;23.20;72.90
292;DHT22;23311;48.776;9.162;2022-09-09T09:13:17;22.70;74.30
292;DHT22;23311;48.776;9.162;2022-09-09T09:15:52;22.60;74.40
292;DHT22;23311;48.776;9.162;2022-09-09T09:18:23;21.90;75.80
292;DHT22;23311;48.776;9.162;2022-09-09T09:20:58;22.00;76.20
292;DHT22;23311;48.776;9.162;2022-09-09T09:23:35;22.00;76.60
292;DHT22;23311;48.776;9.162;2022-09-09T09:26:09;21.90;78.70
292;DHT22;23311;48.776;9.162;2022-09-09T09:28:39;21.40;81.90
292;DHT22;23311;48.776;9.162;2022-09-09T09:31:10;20.40;84.90
292;DHT22;23311;48.776;9.162;2022-09-09T09:33:46;19.70;88.10
292;DHT22;23311;48.776;9.162;2022-09-09T09:36:14;19.30;87.50
292;DHT22;23311;48.776;9.162;2022-09-09T09:38:53;19.10;86.60
292;DHT22;23311;48.776;9.162;2022-09-09T09:41:42;19.00;86.00
292;DHT22;23311;48.776;9.162;2022-09-09T09:44:23;19.90;84.30
292;DHT22;23311;48.776;9.162;2022-09-09T09:46:51;22.30;78.40
292;DHT22;23311;48.776;9.162;2022-09-09T09:49:21;24.60;72.30
292;DHT22;23311;48.776;9.162;2022-09-09T09:51:49;24.80;70.20
292;DHT22;23311;48.776;9.162;2022-09-09T09:54:25;25.90;68.60
292;DHT22;23311;48.776;9.162;2022-09-09T09:56:55;26.90;65.50
292;DHT22;23311;48.776;9.162;2022-09-09T09:59:33;27.20;65.20
292;DHT22;23311;48.776;9.162;2022-09-09T10:02:15;27.80;63.80
292;DHT22;23311;48.776;9.162;2022-09-09T10:04:45;27.60;64.40
292;DHT22;23311;48.776;9.162;2022-09-09T10:07:17;27.20;65.00
292;DHT22;23311;48.776;9.162;2022-09-09T10:09:54;27.30;64.90
292;DHT22;23311;48.776;9.162;2022-09-09T10:12:31;26.80;65.30
292;DHT22;23311;48.776;9.162;2022-09-09T10:15:10;26.10;67.60
292;DHT22;23311;48.776;9.162;2022-09-09T10:17:53;26.80;67.10
292;DHT22;23311;48.776;9.162;2022-09-09T10:20:32;27.60;65.00
292;DHT22;23311;48.776;9.162;2022-09-09T10:23:13;28.00;63.80
292;DHT22;23311;48.776;9.162;2022-09-09T10:26:03;28.40;63.90
292;DHT22;23311;48.776;9.162;2022-09-09T10:28:45;27.40;65.50
292;DHT22;23311;48.776;9.162;2022-09-09T10:31:21;27.20;65.70
292;DHT22;23311;48.776;9.162;2022-09-09T10:33:55;27.60;65.60
292;DHT22;23311;48.776;9.162;2022-09-09T10:36:27;27.00;65.40
292;DHT22;23311;48.776;9.162;2022-09-09T10:38:59;26.20;68.20
292;DHT22;23311;48.776;9.162;2022-09-09T10:41:44;26.20;69.00
292;DHT22;23311;48.776;9.162;2022-09-09T10:44:31;26.80;67.70
292;DHT22;23311;48.776;9.162;2022-09-09T10:47:15;26.50;68.50
292;DHT22;23311;48.776;9.162;2022-09-09T10:50:08;25.90;69.80
292;DHT22;23311;48.776;9.162;2022-09-09T10:52:45;25.50;70.40
292;DHT22;23311;48.776;9.162;2022-09-09T10:55:18;24.50;73.70
292;DHT22;23311;48.776;9.162;2022-09-09T10:57:48;25.40;72.40
292;DHT22;23311;48.776;9.162;2022-09-09T11:00:22;25.30;71.60
292;DHT22;23311;48.776;9.162;2022-09-09T11:02:54;25.60;71.60
292;DHT22;23311;48.776;9.162;2022-09-09T11:05:28;26.00;69.80
292;DHT22;23311;48.776;9.162;2022-09-09T11:08:01;26.30;70.00
292;DHT22;23311;48.776;9.162;2022-09-09T11:10:37;26.40;68.80
292;DHT22;23311;48.776;9.162;2022-09-09T11:13:11;25.20;70.20
292;DHT22;23311;48.776;9.162;2022-09-09T11:15:46;25.10;70.40
292;DHT22;23311;48.776;9.162;2022-09-09T11:18:19;23.60;70.30
292;DHT22;23311;48.776;9.162;2022-09-09T11:20:52;22.60;72.00
292;DHT22;23311;48.776;9.162;2022-09-09T11:23:26;22.10;73.80
292;DHT22;23311;48.776;9.162;2022-09-09T11:25:57;21.70;73.40
292;DHT22;23311;48.776;9.162;2022-09-09T11:28:46;21.20;73.40
292;DHT22;23311;48.776;9.162;2022-09-09T11:31:33;21.00;73.60
292;DHT22;23311;48.776;9.162;2022-09-09T11:34:39;20.90;74.60
292;DHT22;23311;48.776;9.162;2022-09-09T11:37:33;21.10;75.30
292;DHT22;23311;48.776;9.162;2022-09-09T11:40:16;21.00;76.40
292;DHT22;23311;48.776;9.162;2022-09-09T11:42:45;21.00;77.20
292;DHT22;23311;48.776;9.162;2022-09-09T11:45:23;20.80;77.80
292;DHT22;23311;48.776;9.162;2022-09-09T11:47:53;20.60;78.50
292;DHT22;23311;48.776;9.162;2022-09-09T11:50:31;20.60;78.70
292;DHT22;23311;48.776;9.162;2022-09-09T11:53:19;20.50;78.80
292;DHT22;23311;48.776;9.162;2022-09-09T11:56:06;20.50;78.80
292;DHT22;23311;48.776;9.162;2022-09-09T11:58:38;20.10;80.10
292;DHT22;23311;48.776;9.162;2022-09-09T12:01:36;20.40;79.80
292;DHT22;23311;48.776;9.162;2022-09-09T12:04:17;21.00;77.60
292;DHT22;23311;48.776;9.162;2022-09-09T12:06:51;21.80;75.90
292;DHT22;23311;48.776;9.162;2022-09-09T12:09:25;23.80;72.00
292;DHT22;23311;48.776;9.162;2022-09-09T12:12:07;24.70;68.20
292;DHT22;23311;48.776;9.162;2022-09-09T12:14:38;23.90;69.80
292;DHT22;23311;48.776;9.162;2022-09-09T12:17:19;23.60;70.80
292;DHT22;23311;48.776;9.162;2022-09-09T12:19:48;24.80;68.60
292;DHT22;23311;48.776;9.162;2022-09-09T12:22:35;25.70;66.50
292;DHT22;23311;48.776;9.162;2022-09-09T12:25:16;25.40;65.70
292;DHT22;23311;48.776;9.162;2022-09-09T12:28:02;25.30;65.50
292;DHT22;23311;48.776;9.162;2022-09-09T12:30:37;23.90;68.00
292;DHT22;23311;48.776;9.162;2022-09-09T12:33:11;23.60;68.70
292;DHT22;23311;48.776;9.162;2022-09-09T12:35:42;23.70;68.50
292;DHT22;23311;48.776;9.162;2022-09-09T12:38:14;24.10;66.90
292;DHT22;23311;48.776;9.162;2022-09-09T12:40:54;24.90;65.20
292;DHT22;23311;48.776;9.162;2022-09-09T12:43:25;24.30;65.60
292;DHT22;23311;48.776;9.162;2022-09-09T12:45:56;23.10;68.40
292;DHT22;23311;48.776;9.162;2022-09-09T12:48:30;22.90;69.10
292;DHT22;23311;48.776;9.162;2022-09-09T12:50:59;22.20;70.90
292;DHT22;23311;48.776;9.162;2022-09-09T12:53:31;22.10;71.80
292;DHT22;23311;48.776;9.162;2022-09-09T12:56:03;21.60;72.70
292;DHT22;23311;48.776;9.162;2022-09-09T12:58:36;22.10;73.20
292;DHT22;23311;48.776;9.162;2022-09-09T13:01:06;22.80;71.50
292;DHT22;23311;48.776;9.162;2022-09-09T13:03:42;24.10;68.90
292;DHT22;23311;48.776;9.162;2022-09-09T13:06:20;24.10;68.20
292;DHT22;23311;48.776;9.162;2022-09-09T13:08:55;24.40;67.90
292;DHT22;23311;48.776;9.162;2022-09-09T13:11:27;25.30;66.30
292;DHT22;23311;48.776;9.162;2022-09-09T13:13:59;24.90;66.30
292;DHT22;23311;48.776;9.162;2022-09-09T13:16:28;24.50;67.60
292;DHT22;23311;48.776;9.162;2022-09-09T13:19:01;23.50;69.60
292;DHT22;23311;48.776;9.162;2022-09-09T13:21:34;23.70;69.50
292;DHT22;23311;48.776;9.162;2022-09-09T13:24:03;24.20;68.90
292;DHT22;23311;48.776;9.162;2022-09-09T13:26:34;24.90;67.30
292;DHT22;23311;48.776;9.162;2022-09-09T13:29:16;24.60;67.30
292;DHT22;23311;48.776;9.162;2022-09-09T13:31:48;24.40;68.10
292;DHT22;23311;48.776;9.162;2022-09-09T13:34:28;25.70;65.70
292;DHT22;23311;48.776;9.162;2022-09-09T13:36:59;27.10;63.60
292;DHT22;23311;48.776;9.162;2022-09-09T13:39:28;27.20;62.40
292;DHT22;23311;48.776;9.162;2022-09-09T13:41:56;26.00;62.60
292;DHT22;23311;48.776;9.162;2022-09-09T13:44:28;25.50;63.00
292;DHT22;23311;48.776;9.162;2022-09-09T13:47:00;25.70;62.50
292;DHT22;23311;48.776;9.162;2022-09-09T13:49:35;25.20;63.50
292;DHT22;23311;48.776;9.162;2022-09-09T13:52:08;24.60;64.10
292;DHT22;23311;48.776;9.162;2022-09-09T13:54:36;23.80;66.20
292;DHT22;23311;48.776;9.162;2022-09-09T13:57:05;23.80;66.10
292;DHT22;23311;48.776;9.162;2022-09-09T13:59:34;24.80;65.10
292;DHT22;23311;48.776;9.162;2022-09-09T14:02:25;26.50;62.70
292;DHT22;23311;48.776;9.162;2022-09-09T14:04:53;27.40;60.80
292;DHT22;23311;48.776;9.162;2022-09-09T14:07:22;25.60;62.70
292;DHT22;23311;48.776;9.162;2022-09-09T14:09:52;25.30;63.80
292;DHT22;23311;48.776;9.162;2022-09-09T14:12:21;25.60;63.50
292;DHT22;23311;48.776;9.162;2022-09-09T14:14:50;26.20;62.30
292;DHT22;23311;48.776;9.162;2022-09-09T14:17:18;26.60;60.90
292;DHT22;23311;48.776;9.162;2022-09-09T14:19:46;25.90;61.30
292;DHT22;23311;48.776;9.162;2022-09-09T14:22:14;25.40;62.60
292;DHT22;23311;48.776;9.162;2022-09-09T14:24:42;25.00;63.30
292;DHT22;23311;48.776;9.162;2022-09-09T14:27:11;24.90;63.70
292;DHT22;23311;48.776;9.162;2022-09-09T14:29:39;24.40;64.90
292;DHT22;23311;48.776;9.162;2022-09-09T14:32:08;23.90;65.90
292;DHT22;23311;48.776;9.162;2022-09-09T14:34:38;23.10;66.80
292;DHT22;23311;48.776;9.162;2022-09-09T14:37:07;23.40;66.80
292;DHT22;23311;48.776;9.162;2022-09-09T14:39:35;24.00;65.30
292;DHT22;23311;48.776;9.162;2022-09-09T14:42:06;24.50;64.30
292;DHT22;23311;48.776;9.162;2022-09-09T14:44:35;24.10;64.70
292;DHT22;23311;48.776;9.162;2022-09-09T14:47:04;24.20;65.20
292;DHT22;23311;48.776;9.162;2022-09-09T14:49:34;25.20;63.20
292;DHT22;23311;48.776;9.162;2022-09-09T14:52:02;24.80;63.00
292;DHT22;23311;48.776;9.162;2022-09-09T14:54:30;24.90;63.70
292;DHT22;23311;48.776;9.162;2022-09-09T14:56:59;24.90;63.50
292;DHT22;23311;48.776;9.162;2022-09-09T14:59:27;24.40;63.80
292;DHT22;23311;48.776;9.162;2022-09-09T15:01:55;23.60;64.40
292;DHT22;23311;48.776;9.162;2022-09-09T15:04:23;23.50;65.10
292;DHT22;23311;48.776;9.162;2022-09-09T15:06:52;23.90;64.60
292;DHT22;23311;48.776;9.162;2022-09-09T15:09:20;23.60;64.60
292;DHT22;23311;48.776;9.162;2022-09-09T15:11:49;23.50;64.90
292;DHT22;23311;48.776;9.162;2022-09-09T15:14:17;23.50;65.30
292;DHT22;23311;48.776;9.162;2022-09-09T15:16:49;23.20;65.60
292;DHT22;23311;48.776;9.162;2022-09-09T15:19:17;22.90;66.20
292;DHT22;23311;48.776;9.162;2022-09-09T15:21:45;22.80;66.60
292;DHT22;23311;48.776;9.162;2022-09-09T15:24:15;22.70;67.00
292;DHT22;23311;48.776;9.162;2022-09-09T15:26:43;22.60;67.10
292;DHT22;23311;48.776;9.162;2022-09-09T15:29:12;22.40;67.60
292;DHT22;23311;48.776;9.162;2022-09-09T15:31:40;22.30;67.90
292;DHT22;23311;48.776;9.162;2022-09-09T15:34:08;22.30;68.20
292;DHT22;23311;48.776;9.162;2022-09-09T15:36:37;22.50;68.00
292;DHT22;23311;48.776;9.162;2022-09-09T15:39:07;22.70;67.60
292;DHT22;23311;48.776;9.162;2022-09-09T15:41:37;22.60;67.90
292;DHT22;23311;48.776;9.162;2022-09-09T15:44:07;22.50;68.40
292;DHT22;23311;48.776;9.162;2022-09-09T15:46:36;22.40;68.40
292;DHT22;23311;48.776;9.162;2022-09-09T15:49:06;22.10;68.90
292;DHT22;23311;48.776;9.162;2022-09-09T15:51:36;21.90;69.50
292;DHT22;23311;48.776;9.162;2022-09-09T15:54:12;21.90;69.60
292;DHT22;23311;48.776;9.162;2022-09-09T15:56:42;21.90;69.80
292;DHT22;23311;48.776;9.162;2022-09-09T15:59:10;21.80;70.20
292;DHT22;23311;48.776;9.162;2022-09-09T16:01:39;21.80;70.10
292;DHT22;23311;48.776;9.162;2022-09-09T16:04:08;21.80;69.60
292;DHT22;23311;48.776;9.162;2022-09-09T16:06:36;21.70;69.10
292;DHT22;23311;48.776;9.162;2022-09-09T16:09:06;21.70;69.10
292;DHT22;23311;48.776;9.162;2022-09-09T16:11:35;21.60;69.00
292;DHT22;23311;48.776;9.162;2022-09-09T16:14:05;21.60;69.30
292;DHT22;23311;48.776;9.162;2022-09-09T16:16:34;21.60;69.60
292;DHT22;23311;48.776;9.162;2022-09-09T16:19:04;21.60;69.70
292;DHT22;23311;48.776;9.162;2022-09-09T16:21:34;21.60;69.90
292;DHT22;23311;48.776;9.162;2022-09-09T16:24:03;21.50;70.00
292;DHT22;23311;48.776;9.162;2022-09-09T16:26:34;21.40;70.20
292;DHT22;23311;48.776;9.162;2022-09-09T16:29:04;21.40;70.70
292;DHT22;23311;48.776;9.162;2022-09-09T16:31:32;21.30;71.10
292;DHT22;23311;48.776;9.162;2022-09-09T16:34:01;21.20;71.90
292;DHT22;23311;48.776;9.162;2022-09-09T16:36:31;21.20;72.10
292;DHT22;23311;48.776;9.162;2022-09-09T16:39:02;21.00;73.00
292;DHT22;23311;48.776;9.162;2022-09-09T16:41:31;20.60;74.10